Time;durP1;ratioP1;P1;durP2;ratioP2;P2;SDS_P1;SDS_P2;PMS_P1;PMS_P2;Temp;Humidity;BMP_temperature;BMP_pressure;BME280_temperature;BME280_humidity;BME280_pressure;Samples;Min_cycle;Max_cycle;Signal;HPM_P1;HPM_P2
2023/01/04 00:02:27;;;;;;;;;;;;;;;;;;7372408;19;1912;-68
2023/01/04 00:04:55;;;;;;;;;;;;;;;;;;7371253;19;1853;-67
2023/01/04 00:07:23;;;;;;;;;;;;;;;;;;7374366;19;918;-67
2023/01/04 00:09:52;;;;;;;;;;;;;;;;;;7374303;19;753;-66
2023/01/04 00:12:20;;;;;;;;;;;;;;;;;;7373453;19;1790;-66
2023/01/04 00:14:48;;;;;;;;;;;;;;;;;;7371201;19;854;-66
2023/01/04 00:17:16;;;;;;;;;;;;;;;;;;7369700;19;873;-67
2023/01/04 00:19:44;;;;;;;;;;;;;;;;;;7373699;19;1861;-67
2023/01/04 00:22:12;;;;;;;;;;;;;;;;;;7368620;19;1386;-67
2023/01/04 00:24:40;;;;;;;;;;;;;;;;;;7368006;19;1834;-68
2023/01/04 00:27:09;;;;;;;;;;;;;;;;;;7369186;19;822;-66
2023/01/04 00:29:37;;;;;;;;;;;;;;;;;;7370293;19;1884;-66
2023/01/04 00:32:05;;;;;;;;;;;;;;;;;;7367205;19;1329;-66
2023/01/04 00:34:33;;;;;;;;;;;;;;;;;;7370650;19;1834;-66
2023/01/04 00:37:01;;;;;;;;;;;;;;;;;;7371332;19;1951;-65
2023/01/04 00:39:29;;;;;;;;;;;;;;;;;;7367984;19;900;-65
2023/01/04 00:42:03;;;;;;;;;;;;;;;;;;7364985;19;1291;-64
2023/01/04 00:44:32;;;;;;;;;;;;;;;;;;7364580;19;1846;-65
2023/01/04 00:47:00;;;;;;;;;;;;;;;;;;7372064;19;1722;-65
2023/01/04 00:49:28;;;;;;;;;;;;;;;;;;7367146;19;771;-65
2023/01/04 00:51:56;;;;;;;;;;;;;;;;;;7365802;19;1338;-66
2023/01/04 00:54:24;;;;;;;;;;;;;;;;;;7368175;19;842;-65
2023/01/04 00:56:53;;;;;;;;;;;;;;;;;;7367904;19;814;-66
2023/01/04 00:59:21;;;;;;;;;;;;;;;;;;7366685;19;777;-68
2023/01/04 01:01:49;;;;;;;;;;;;;;;;;;7365343;19;1958;-66
2023/01/04 01:04:17;;;;;;;;;;;;;;;;;;7369296;19;1914;-67
2023/01/04 01:06:45;;;;;;;;;;;;;;;;;;7371672;19;1958;-67
2023/01/04 01:09:13;;;;;;;;;;;;;;;;;;7367226;19;877;-68
2023/01/04 01:11:41;;;;;;;;;;;;;;;;;;7365610;19;1310;-68
2023/01/04 01:14:10;;;;;;;;;;;;;;;;;;7365927;19;873;-69
2023/01/04 01:16:38;;;;;;;;;;;;;;;;;;7367144;19;821;-66
2023/01/04 01:19:06;;;;;;;;;;;;;;;;;;7366660;19;1420;-66
2023/01/04 01:21:34;;;;;;;;;;;;;;;;;;7365807;19;1311;-67
2023/01/04 01:24:02;;;;;;;;;;;;;;;;;;7364075;19;1853;-67
2023/01/04 01:26:30;;;;;;;;;;;;;;;;;;7368188;19;1891;-68
2023/01/04 01:28:58;;;;;;;;;;;;;;;;;;7365397;19;914;-67
2023/01/04 01:31:27;;;;;;;;;;;;;;;;;;7365864;19;1682;-67
2023/01/04 01:33:55;;;;;;;;;;;;;;;;;;7365264;19;817;-69
2023/01/04 01:36:23;;;;;;;;;;;;;;;;;;7367717;19;1908;-65
2023/01/04 01:38:51;;;;;;;;;;;;;;;;;;7368308;19;1814;-65
2023/01/04 01:41:19;;;;;;;;;;;;;;;;;;7364797;19;1899;-66
2023/01/04 01:43:47;;;;;;;;;;;;;;;;;;7365214;19;1841;-66
2023/01/04 01:46:15;;;;;;;;;;;;;;;;;;7366696;19;867;-67
2023/01/04 01:48:44;;;;;;;;;;;;;;;;;;7366030;19;895;-67
2023/01/04 01:51:12;;;;;;;;;;;;;;;;;;7367242;19;1880;-67
2023/01/04 01:53:40;;;;;;;;;;;;;;;;;;7368979;19;1920;-69
2023/01/04 01:56:08;;;;;;;;;;;;;;;;;;7365793;19;823;-68
2023/01/04 01:58:36;;;;;;;;;;;;;;;;;;7365126;19;870;-68
2023/01/04 02:01:04;;;;;;;;;;;;;;;;;;7365964;19;1945;-68
2023/01/04 02:03:32;;;;;;;;;;;;;;;;;;7365742;19;1851;-68
2023/01/04 02:06:00;;;;;;;;;;;;;;;;;;7366025;19;850;-69
2023/01/04 02:08:29;;;;;;;;;;;;;;;;;;7364957;19;916;-69
2023/01/04 02:10:57;;;;;;;;;;;;;;;;;;7367563;19;1907;-70
2023/01/04 02:14:25;;;;;;;;;;;;;;;;;;7366263;19;834;-71
2023/01/04 02:16:13;;;;;;;;;;;;;;;;;;7366466;19;1144;-71
2023/01/04 02:18:41;;;;;;;;;;;;;;;;;;7365111;19;828;-70
2023/01/04 02:21:09;;;;;;;;;;;;;;;;;;7364354;19;1835;-72
2023/01/04 02:23:37;;;;;;;;;;;;;;;;;;7365366;19;1841;-71
2023/01/04 02:26:06;;;;;;;;;;;;;;;;;;7365484;19;1852;-70
2023/01/04 02:28:34;;;;;;;;;;;;;;;;;;7368845;19;2169;-70
2023/01/04 02:31:02;;;;;;;;;;;;;;;;;;7363701;19;1281;-70
2023/01/04 02:33:30;;;;;;;;;;;;;;;;;;7364435;19;789;-71
2023/01/04 02:35:58;;;;;;;;;;;;;;;;;;7364384;19;882;-67
2023/01/04 02:38:26;;;;;;;;;;;;;;;;;;7363046;19;827;-68
2023/01/04 02:40:54;;;;;;;;;;;;;;;;;;7363148;19;1252;-68
2023/01/04 02:46:03;;;;;;;;;;;;;;;;;;7365063;19;796;-67
2023/01/04 02:51:12;;;;;;;;;;;;;;;;;;7363450;19;1337;-69
2023/01/04 02:53:40;;;;;;;;;;;;;;;;;;7363972;19;864;-69
2023/01/04 02:56:08;;;;;;;;;;;;;;;;;;7367413;19;1854;-67
2023/01/04 02:58:36;;;;;;;;;;;;;;;;;;7368720;19;1914;-69
2023/01/04 03:06:25;;;;;;;;;;;;;;;;;;7364489;19;729;-68
2023/01/04 03:08:54;;;;;;;;;;;;;;;;;;7374196;19;1937;-68
2023/01/04 03:14:02;;;;;;;;;;;;;;;;;;7370360;19;787;-69
2023/01/04 03:16:30;;;;;;;;;;;;;;;;;;7370439;19;772;-69
2023/01/04 03:19:03;;;;;;;;;;;;;;;;;;7373780;19;1838;-69
2023/01/04 03:21:31;;;;;;;;;;;;;;;;;;7372764;19;1812;-70
2023/01/04 03:37:37;;;;;;;;;;;;;;;;;;7365727;19;1238;-68
2023/01/04 03:50:48;;;;;;;;;;;;;;;;;;7368711;19;1920;-70
2023/01/04 03:53:16;;;;;;;;;;;;;;;;;;7374897;19;1470;-70
2023/01/04 03:55:44;;;;;;;;;;;;;;;;;;7368807;19;870;-70
2023/01/04 03:58:12;;;;;;;;;;;;;;;;;;7368805;19;791;-70
2023/01/04 04:00:40;;;;;;;;;;;;;;;;;;7368802;19;1346;-69
2023/01/04 04:03:11;;;;;;;;;;;;;;;;;;7373248;19;2239;-69
2023/01/04 04:08:32;;;;;;;;;;;;;;;;;;7369185;19;1658;-69
2023/01/04 04:11:28;;;;;;;;;;;;;;;;;;7369739;19;1895;-69
2023/01/04 04:13:48;;;;;;;;;;;;;;;;;;7368559;19;1073;-69
2023/01/04 04:16:16;;;;;;;;;;;;;;;;;;7369070;19;826;-69
2023/01/04 04:18:44;;;;;;;;;;;;;;;;;;7366297;19;828;-69
2023/01/04 04:21:13;;;;;;;;;;;;;;;;;;7368030;19;1255;-68
2023/01/04 04:23:41;;;;;;;;;;;;;;;;;;7369050;19;841;-70
2023/01/04 04:26:09;;;;;;;;;;;;;;;;;;7370061;19;1858;-69
2023/01/04 04:28:38;;;;;;;;;;;;;;;;;;7368201;19;824;-71
2023/01/04 04:31:06;;;;;;;;;;;;;;;;;;7367092;19;1295;-69
2023/01/04 04:33:34;;;;;;;;;;;;;;;;;;7370405;19;1403;-68
2023/01/04 04:36:02;;;;;;;;;;;;;;;;;;7372800;19;969;-69
2023/01/04 04:38:30;;;;;;;;;;;;;;;;;;7367975;19;794;-69
2023/01/04 04:43:39;;;;;;;;;;;;;;;;;;7372317;19;1631;-69
2023/01/04 04:46:07;;;;;;;;;;;;;;;;;;7366519;19;1837;-69
2023/01/04 04:48:35;;;;;;;;;;;;;;;;;;7368126;19;807;-71
2023/01/04 04:51:04;;;;;;;;;;;;;;;;;;7365699;19;1282;-69
2023/01/04 04:53:32;;;;;;;;;;;;;;;;;;7368257;19;851;-71
2023/01/04 04:56:00;;;;;;;;;;;;;;;;;;7367893;19;804;-71
2023/01/04 04:58:28;;;;;;;;;;;;;;;;;;7366355;19;1872;-70
2023/01/04 05:00:56;;;;;;;;;;;;;;;;;;7366931;19;1303;-71
2023/01/04 05:03:24;;;;;;;;;;;;;;;;;;7367927;19;847;-70
2023/01/04 05:05:52;;;;;;;;;;;;;;;;;;7366010;19;1850;-71
2023/01/04 05:08:21;;;;;;;;;;;;;;;;;;7367074;19;837;-70
2023/01/04 05:10:49;;;;;;;;;;;;;;;;;;7366528;19;1279;-70
2023/01/04 05:13:14;;;;;;;;;;;;;;;;;;7367967;19;803;-69
2023/01/04 05:15:42;;;;;;;;;;;;;;;;;;7368308;19;1893;-71
2023/01/04 05:18:11;;;;;;;;;;;;;;;;;;7367427;19;841;-70
2023/01/04 05:20:39;;;;;;;;;;;;;;;;;;7365451;19;1278;-70
2023/01/04 05:23:07;;;;;;;;;;;;;;;;;;7364255;19;814;-70
2023/01/04 05:25:35;;;;;;;;;;;;;;;;;;7364194;19;1845;-71
2023/01/04 05:28:03;;;;;;;;;;;;;;;;;;7364066;19;884;-71
2023/01/04 05:33:12;;;;;;;;;;;;;;;;;;7364784;19;1850;-70
2023/01/04 05:35:40;;;;;;;;;;;;;;;;;;7366810;19;1840;-70
2023/01/04 05:38:08;;;;;;;;;;;;;;;;;;7362808;19;886;-70
2023/01/04 05:40:36;;;;;;;;;;;;;;;;;;7364070;19;1349;-70
2023/01/04 05:43:04;;;;;;;;;;;;;;;;;;7363716;19;866;-70
2023/01/04 05:45:33;;;;;;;;;;;;;;;;;;7361651;19;1862;-69
2023/01/04 05:48:01;;;;;;;;;;;;;;;;;;7363052;19;2131;-68
2023/01/04 05:50:29;;;;;;;;;;;;;;;;;;7363391;19;1377;-69
2023/01/04 05:53:05;;;;;;;;;;;;;;;;;;7366428;19;1852;-68
2023/01/04 05:55:33;;;;;;;;;;;;;;;;;;7363625;19;818;-69
2023/01/04 05:58:01;;;;;;;;;;;;;;;;;;7362588;19;751;-69
2023/01/04 06:00:29;;;;;;;;;;;;;;;;;;7362940;19;1263;-68
2023/01/04 06:02:57;;;;;;;;;;;;;;;;;;7364641;19;1881;-68
2023/01/04 06:05:25;;;;;;;;;;;;;;;;;;7361726;19;1841;-69
2023/01/04 06:07:54;;;;;;;;;;;;;;;;;;7362166;19;840;-69
2023/01/04 06:10:22;;;;;;;;;;;;;;;;;;7362793;19;1274;-70
2023/01/04 06:12:50;;;;;;;;;;;;;;;;;;7362472;19;847;-68
2023/01/04 06:15:18;;;;;;;;;;;;;;;;;;7362073;19;851;-67
2023/01/04 06:17:46;;;;;;;;;;;;;;;;;;7362030;19;839;-69
2023/01/04 06:20:14;;;;;;;;;;;;;;;;;;7224124;19;2718420;-68
2023/01/04 06:22:43;;;;;;;;;;;;;;;;;;7363695;19;823;-67
2023/01/04 06:25:11;;;;;;;;;;;;;;;;;;7364438;19;1919;-69
2023/01/04 06:27:39;;;;;;;;;;;;;;;;;;7364352;19;881;-70
2023/01/04 06:30:07;;;;;;;;;;;;;;;;;;7364665;19;827;-67
2023/01/04 06:32:35;;;;;;;;;;;;;;;;;;7364309;19;1907;-67
2023/01/04 06:35:04;;;;;;;;;;;;;;;;;;7364165;19;863;-67
2023/01/04 06:37:32;;;;;;;;;;;;;;;;;;7367846;19;1875;-68
2023/01/04 06:40:00;;;;;;;;;;;;;;;;;;7364718;19;903;-68
2023/01/04 06:45:09;;;;;;;;;;;;;;;;;;7369876;19;1842;-69
2023/01/04 06:47:37;;;;;;;;;;;;;;;;;;7371027;19;862;-69
2023/01/04 06:50:06;;;;;;;;;;;;;;;;;;7370927;19;824;-68
2023/01/04 06:52:34;;;;;;;;;;;;;;;;;;7368985;19;1925;-67
2023/01/04 06:55:02;;;;;;;;;;;;;;;;;;7373610;19;1931;-67
2023/01/04 06:57:31;;;;;;;;;;;;;;;;;;7370884;19;871;-68
2023/01/04 06:59:59;;;;;;;;;;;;;;;;;;7370404;19;847;-69
2023/01/04 07:02:27;;;;;;;;;;;;;;;;;;7368631;19;1377;-69
2023/01/04 07:04:55;;;;;;;;;;;;;;;;;;7372938;19;1868;-69
2023/01/04 07:07:23;;;;;;;;;;;;;;;;;;7370988;19;897;-68
2023/01/04 07:09:51;;;;;;;;;;;;;;;;;;7370276;19;786;-70
2023/01/04 07:12:20;;;;;;;;;;;;;;;;;;7368300;19;1364;-70
2023/01/04 07:14:48;;;;;;;;;;;;;;;;;;7370605;19;823;-69
2023/01/04 07:17:16;;;;;;;;;;;;;;;;;;7370931;19;1758;-69
2023/01/04 07:19:44;;;;;;;;;;;;;;;;;;7373678;19;1841;-70
2023/01/04 07:22:12;;;;;;;;;;;;;;;;;;7368683;19;1367;-70
2023/01/04 07:24:41;;;;;;;;;;;;;;;;;;7370278;19;826;-69
2023/01/04 07:27:10;;;;;;;;;;;;;;;;;;7368669;19;1841;-68
2023/01/04 07:29:38;;;;;;;;;;;;;;;;;;7369338;19;794;-68
2023/01/04 07:32:06;;;;;;;;;;;;;;;;;;7368354;19;1897;-66
2023/01/04 07:34:34;;;;;;;;;;;;;;;;;;7369581;19;852;-68
2023/01/04 07:37:02;;;;;;;;;;;;;;;;;;7368509;19;822;-68
2023/01/04 07:39:30;;;;;;;;;;;;;;;;;;7368968;19;873;-69
2023/01/04 07:41:58;;;;;;;;;;;;;;;;;;7368054;19;1209;-68
2023/01/04 07:44:27;;;;;;;;;;;;;;;;;;7369767;19;827;-68
2023/01/04 07:46:55;;;;;;;;;;;;;;;;;;7366224;19;1857;-70
2023/01/04 07:49:23;;;;;;;;;;;;;;;;;;7368800;19;1886;-67
2023/01/04 07:51:51;;;;;;;;;;;;;;;;;;7367926;19;1345;-68
2023/01/04 07:54:19;;;;;;;;;;;;;;;;;;7369462;19;811;-67
2023/01/04 07:56:47;;;;;;;;;;;;;;;;;;7369516;19;814;-67
2023/01/04 07:59:16;;;;;;;;;;;;;;;;;;7367313;19;857;-67
2023/01/04 08:01:44;;;;;;;;;;;;;;;;;;7369760;19;1364;-68
2023/01/04 08:04:12;;;;;;;;;;;;;;;;;;7372772;19;1863;-68
2023/01/04 08:06:40;;;;;;;;;;;;;;;;;;7369740;19;1876;-68
2023/01/04 08:09:08;;;;;;;;;;;;;;;;;;7368448;19;826;-67
2023/01/04 08:11:37;;;;;;;;;;;;;;;;;;7367127;19;1342;-69
2023/01/04 08:14:05;;;;;;;;;;;;;;;;;;7368412;19;796;-67
2023/01/04 08:16:33;;;;;;;;;;;;;;;;;;7369233;19;798;-68
2023/01/04 08:19:01;;;;;;;;;;;;;;;;;;7368095;19;792;-67
2023/01/04 08:21:29;;;;;;;;;;;;;;;;;;7368452;19;1287;-67
2023/01/04 08:23:57;;;;;;;;;;;;;;;;;;7371952;19;1848;-68
2023/01/04 08:26:26;;;;;;;;;;;;;;;;;;7367116;19;1834;-67
2023/01/04 08:28:55;;;;;;;;;;;;;;;;;;7368296;19;799;-67
2023/01/04 08:31:23;;;;;;;;;;;;;;;;;;7365345;19;1248;-68
2023/01/04 08:33:51;;;;;;;;;;;;;;;;;;7366654;19;807;-68
2023/01/04 08:36:19;;;;;;;;;;;;;;;;;;7368360;19;807;-68
2023/01/04 08:38:47;;;;;;;;;;;;;;;;;;7367979;19;1826;-68
2023/01/04 08:41:16;;;;;;;;;;;;;;;;;;7371662;19;2114;-69
2023/01/04 08:43:44;;;;;;;;;;;;;;;;;;7368350;19;799;-69
2023/01/04 08:46:12;;;;;;;;;;;;;;;;;;7367877;19;1826;-68
2023/01/04 08:48:40;;;;;;;;;;;;;;;;;;7371313;19;1485;-68
2023/01/04 08:51:08;;;;;;;;;;;;;;;;;;7366834;19;1267;-67
2023/01/04 08:53:36;;;;;;;;;;;;;;;;;;7367756;19;838;-68
2023/01/04 08:56:05;;;;;;;;;;;;;;;;;;7369713;19;1502;-67
2023/01/04 08:58:33;;;;;;;;;;;;;;;;;;7371250;19;2193;-68
2023/01/04 09:01:02;;;;;;;;;;;;;;;;;;7367179;19;1294;-69
2023/01/04 09:03:30;;;;;;;;;;;;;;;;;;7369578;19;870;-68
2023/01/04 09:05:58;;;;;;;;;;;;;;;;;;7365536;19;1906;-67
2023/01/04 09:08:26;;;;;;;;;;;;;;;;;;7369451;19;1848;-70
2023/01/04 09:10:54;;;;;;;;;;;;;;;;;;7366794;19;1290;-69
2023/01/04 09:13:22;;;;;;;;;;;;;;;;;;7367870;19;986;-69
2023/01/04 09:15:51;;;;;;;;;;;;;;;;;;7368147;19;693;-69
2023/01/04 09:18:19;;;;;;;;;;;;;;;;;;7367821;19;791;-69
2023/01/04 09:20:47;;;;;;;;;;;;;;;;;;7366744;19;1294;-68
2023/01/04 09:23:15;;;;;;;;;;;;;;;;;;7369574;19;2011;-69
2023/01/04 09:25:43;;;;;;;;;;;;;;;;;;7369686;19;1874;-71
2023/01/04 09:28:11;;;;;;;;;;;;;;;;;;7366296;19;838;-71
2023/01/04 09:30:39;;;;;;;;;;;;;;;;;;7366568;19;1307;-70
2023/01/04 09:33:08;;;;;;;;;;;;;;;;;;7367555;19;855;-72
2023/01/04 09:35:36;;;;;;;;;;;;;;;;;;7366761;19;857;-71
2023/01/04 09:38:04;;;;;;;;;;;;;;;;;;7366819;19;851;-69
2023/01/04 09:40:32;;;;;;;;;;;;;;;;;;7369828;19;1838;-69
2023/01/04 09:43:01;;;;;;;;;;;;;;;;;;7371122;19;858;-70
2023/01/04 09:45:29;;;;;;;;;;;;;;;;;;7366636;19;873;-68
2023/01/04 09:47:57;;;;;;;;;;;;;;;;;;7366132;19;873;-67
2023/01/04 09:50:25;;;;;;;;;;;;;;;;;;7365999;19;1846;-69
2023/01/04 09:52:53;;;;;;;;;;;;;;;;;;7371274;19;1614;-69
2023/01/04 09:55:21;;;;;;;;;;;;;;;;;;7365987;19;826;-68
2023/01/04 09:57:49;;;;;;;;;;;;;;;;;;7365188;19;811;-69
2023/01/04 10:00:18;;;;;;;;;;;;;;;;;;7365134;19;1338;-68
2023/01/04 10:02:46;;;;;;;;;;;;;;;;;;7366326;19;921;-69
2023/01/04 10:05:14;;;;;;;;;;;;;;;;;;7366351;19;758;-68
2023/01/04 10:07:42;;;;;;;;;;;;;;;;;;7365629;19;2058;-68
2023/01/04 10:10:10;;;;;;;;;;;;;;;;;;7366583;19;2092;-68
2023/01/04 10:12:38;;;;;;;;;;;;;;;;;;7363557;19;2223;-67
2023/01/04 10:15:07;;;;;;;;;;;;;;;;;;7364591;19;732;-69
2023/01/04 10:17:35;;;;;;;;;;;;;;;;;;7361933;19;968;-68
2023/01/04 10:20:03;;;;;;;;;;;;;;;;;;7364862;19;1092;-68
2023/01/04 10:22:31;;;;;;;;;;;;;;;;;;7362572;19;1279;-69
2023/01/04 10:24:59;;;;;;;;;;;;;;;;;;7364879;19;787;-67
2023/01/04 10:27:27;;;;;;;;;;;;;;;;;;7362565;19;1833;-68
2023/01/04 10:29:55;;;;;;;;;;;;;;;;;;7364435;19;804;-66
2023/01/04 10:32:24;;;;;;;;;;;;;;;;;;7360499;19;1275;-67
2023/01/04 10:34:52;;;;;;;;;;;;;;;;;;7364972;19;1710;-65
2023/01/04 10:37:20;;;;;;;;;;;;;;;;;;7367786;19;1767;-67
2023/01/04 10:39:48;;;;;;;;;;;;;;;;;;7364617;19;1847;-67
2023/01/04 10:42:16;;;;;;;;;;;;;;;;;;7365194;19;1912;-68
2023/01/04 10:44:45;;;;;;;;;;;;;;;;;;7369404;19;1841;-67
2023/01/04 10:47:13;;;;;;;;;;;;;;;;;;7363606;19;1841;-68
2023/01/04 10:49:41;;;;;;;;;;;;;;;;;;7366210;19;1643;-67
2023/01/04 10:52:09;;;;;;;;;;;;;;;;;;7360796;19;1256;-69
2023/01/04 10:54:37;;;;;;;;;;;;;;;;;;7364897;19;819;-68
2023/01/04 10:57:05;;;;;;;;;;;;;;;;;;7364582;19;752;-68
2023/01/04 10:59:34;;;;;;;;;;;;;;;;;;7363892;19;800;-67
2023/01/04 11:02:02;;;;;;;;;;;;;;;;;;7365231;19;1644;-65
2023/01/04 11:04:30;;;;;;;;;;;;;;;;;;7365415;19;858;-68
2023/01/04 11:06:58;;;;;;;;;;;;;;;;;;7363960;19;2226;-68
2023/01/04 11:09:26;;;;;;;;;;;;;;;;;;7365378;19;822;-68
2023/01/04 11:11:54;;;;;;;;;;;;;;;;;;7362565;19;1368;-69
2023/01/04 11:14:23;;;;;;;;;;;;;;;;;;7364575;19;828;-69
2023/01/04 11:16:51;;;;;;;;;;;;;;;;;;7364490;19;843;-68
2023/01/04 11:19:19;;;;;;;;;;;;;;;;;;7367023;19;1727;-67
2023/01/04 11:21:47;;;;;;;;;;;;;;;;;;7362355;19;1311;-69
2023/01/04 11:24:15;;;;;;;;;;;;;;;;;;7362325;19;866;-67
2023/01/04 11:26:44;;;;;;;;;;;;;;;;;;7363404;19;1825;-68
2023/01/04 11:29:12;;;;;;;;;;;;;;;;;;7369268;19;1887;-67
2023/01/04 11:31:40;;;;;;;;;;;;;;;;;;7371393;19;1958;-67
2023/01/04 11:34:08;;;;;;;;;;;;;;;;;;7370850;19;1905;-67
2023/01/04 11:36:36;;;;;;;;;;;;;;;;;;7371997;19;1861;-67
2023/01/04 11:39:04;;;;;;;;;;;;;;;;;;7371040;19;1714;-67
2023/01/04 11:41:33;;;;;;;;;;;;;;;;;;7371607;19;2099;-67
2023/01/04 11:44:02;;;;;;;;;;;;;;;;;;7368993;19;1887;-69
2023/01/04 11:46:30;;;;;;;;;;;;;;;;;;7369721;19;1830;-65
2023/01/04 11:48:58;;;;;;;;;;;;;;;;;;7370328;19;1862;-67
2023/01/04 11:51:27;;;;;;;;;;;;;;;;;;7369254;19;1848;-67
2023/01/04 11:53:55;;;;;;;;;;;;;;;;;;7373095;19;1822;-67
2023/01/04 11:56:23;;;;;;;;;;;;;;;;;;7374285;19;1859;-66
2023/01/04 11:58:52;;;;;;;;;;;;;;;;;;7371813;19;2159;-66
2023/01/04 12:01:20;;;;;;;;;;;;;;;;;;7372366;19;1892;-67
2023/01/04 12:03:48;;;;;;;;;;;;;;;;;;7369139;19;846;-69
2023/01/04 12:06:16;;;;;;;;;;;;;;;;;;7370716;19;1834;-69
2023/01/04 12:08:44;;;;;;;;;;;;;;;;;;7369813;19;2116;-67
2023/01/04 12:11:12;;;;;;;;;;;;;;;;;;7370543;19;1836;-67
2023/01/04 12:13:40;;;;;;;;;;;;;;;;;;7372263;19;1856;-66
2023/01/04 12:16:09;;;;;;;;;;;;;;;;;;7369029;19;1965;-66
2023/01/04 12:18:37;;;;;;;;;;;;;;;;;;7371143;19;851;-64
2023/01/04 12:21:05;;;;;;;;;;;;;;;;;;7366194;19;1279;-66
2023/01/04 12:23:33;;;;;;;;;;;;;;;;;;7373461;19;1606;-66
2023/01/04 12:26:01;;;;;;;;;;;;;;;;;;7371303;19;1882;-69
2023/01/04 12:28:29;;;;;;;;;;;;;;;;;;7368924;19;1893;-69
2023/01/04 12:30:57;;;;;;;;;;;;;;;;;;7373128;19;2318;-70
2023/01/04 12:33:26;;;;;;;;;;;;;;;;;;7372545;19;1864;-69
2023/01/04 12:35:54;;;;;;;;;;;;;;;;;;7373321;19;1713;-69
2023/01/04 12:38:22;;;;;;;;;;;;;;;;;;7371378;19;1866;-70
2023/01/04 12:40:50;;;;;;;;;;;;;;;;;;7365578;19;1863;-70
2023/01/04 12:43:18;;;;;;;;;;;;;;;;;;7370721;19;1651;-70
2023/01/04 12:49:02;;;;;;;;;;;;;;;;;;7372742;19;1829;-70
2023/01/04 12:51:15;;;;;;;;;;;;;;;;;;7369873;19;1808;-72
2023/01/04 12:53:43;;;;;;;;;;;;;;;;;;7372626;19;1836;-72
2023/01/04 12:56:12;;;;;;;;;;;;;;;;;;7368832;19;800;-72
2023/01/04 12:58:40;;;;;;;;;;;;;;;;;;7369197;19;858;-69
2023/01/04 13:01:08;;;;;;;;;;;;;;;;;;7368314;19;1255;-68
2023/01/04 13:03:36;;;;;;;;;;;;;;;;;;7368526;19;881;-68
2023/01/04 13:06:04;;;;;;;;;;;;;;;;;;7370156;19;818;-70
2023/01/04 13:08:34;;;;;;;;;;;;;;;;;;7366620;19;1809;-68
2023/01/04 13:11:02;;;;;;;;;;;;;;;;;;7367916;19;1864;-68
2023/01/04 13:13:30;;;;;;;;;;;;;;;;;;7369341;19;828;-69
2023/01/04 13:15:58;;;;;;;;;;;;;;;;;;7367272;19;794;-69
2023/01/04 13:18:27;;;;;;;;;;;;;;;;;;7367497;19;859;-69
2023/01/04 13:20:55;;;;;;;;;;;;;;;;;;7367360;19;1327;-70
2023/01/04 13:23:23;;;;;;;;;;;;;;;;;;7370402;19;1807;-71
2023/01/04 13:25:51;;;;;;;;;;;;;;;;;;7371764;19;1736;-72
2023/01/04 13:28:19;;;;;;;;;;;;;;;;;;7366048;19;1841;-72
2023/01/04 13:30:48;;;;;;;;;;;;;;;;;;7367761;19;1294;-72
2023/01/04 13:33:16;;;;;;;;;;;;;;;;;;7368581;19;907;-72
2023/01/04 13:35:45;;;;;;;;;;;;;;;;;;7367510;19;819;-70
2023/01/04 13:38:13;;;;;;;;;;;;;;;;;;7369417;19;1877;-71
2023/01/04 13:40:41;;;;;;;;;;;;;;;;;;7368944;19;1772;-70
2023/01/04 13:43:09;;;;;;;;;;;;;;;;;;7370771;19;1837;-70
2023/01/04 13:45:37;;;;;;;;;;;;;;;;;;7368317;19;878;-71
2023/01/04 13:48:06;;;;;;;;;;;;;;;;;;7365360;19;1849;-71
2023/01/04 13:50:34;;;;;;;;;;;;;;;;;;7367720;19;1346;-70
2023/01/04 13:53:02;;;;;;;;;;;;;;;;;;7367587;19;855;-70
2023/01/04 13:55:30;;;;;;;;;;;;;;;;;;7366862;19;804;-72
2023/01/04 13:57:58;;;;;;;;;;;;;;;;;;7367288;19;807;-70
2023/01/04 14:00:26;;;;;;;;;;;;;;;;;;7366858;19;1263;-70
2023/01/04 14:02:55;;;;;;;;;;;;;;;;;;7368403;19;798;-69
2023/01/04 14:05:23;;;;;;;;;;;;;;;;;;7368632;19;1888;-69
2023/01/04 14:07:51;;;;;;;;;;;;;;;;;;7365555;19;1856;-69
2023/01/04 14:10:19;;;;;;;;;;;;;;;;;;7364728;19;1369;-70
2023/01/04 14:12:47;;;;;;;;;;;;;;;;;;7367047;19;858;-72
2023/01/04 14:15:15;;;;;;;;;;;;;;;;;;7367220;19;788;-72
2023/01/04 14:17:44;;;;;;;;;;;;;;;;;;7366805;19;807;-69
2023/01/04 14:20:12;;;;;;;;;;;;;;;;;;7364604;19;833;-71
2023/01/04 14:22:40;;;;;;;;;;;;;;;;;;7363363;19;1350;-69
2023/01/04 14:25:08;;;;;;;;;;;;;;;;;;7366855;19;819;-67
2023/01/04 14:27:36;;;;;;;;;;;;;;;;;;7365692;19;1880;-67
2023/01/04 14:30:04;;;;;;;;;;;;;;;;;;7363628;19;831;-66
2023/01/04 14:32:33;;;;;;;;;;;;;;;;;;7361191;19;1322;-69
2023/01/04 14:35:01;;;;;;;;;;;;;;;;;;7366524;19;803;-69
2023/01/04 14:37:29;;;;;;;;;;;;;;;;;;7365565;19;812;-68
2023/01/04 14:39:57;;;;;;;;;;;;;;;;;;7363727;19;855;-69
2023/01/04 14:42:25;;;;;;;;;;;;;;;;;;7362735;19;1295;-69
2023/01/04 14:44:54;;;;;;;;;;;;;;;;;;7365719;19;901;-70
2023/01/04 14:47:22;;;;;;;;;;;;;;;;;;7364744;19;1838;-70
2023/01/04 14:49:50;;;;;;;;;;;;;;;;;;7364827;19;862;-69
2023/01/04 14:52:18;;;;;;;;;;;;;;;;;;7361609;19;1808;-67
2023/01/04 14:54:46;;;;;;;;;;;;;;;;;;7369282;19;1756;-68
2023/01/04 14:57:15;;;;;;;;;;;;;;;;;;7365510;19;812;-69
2023/01/04 14:59:44;;;;;;;;;;;;;;;;;;7363994;19;804;-68
2023/01/04 15:02:12;;;;;;;;;;;;;;;;;;7362123;19;1679;-69
2023/01/04 15:04:41;;;;;;;;;;;;;;;;;;7371256;19;824;-69
2023/01/04 15:07:09;;;;;;;;;;;;;;;;;;7371070;19;1842;-68
2023/01/04 15:09:38;;;;;;;;;;;;;;;;;;7370866;19;795;-68
2023/01/04 15:12:06;;;;;;;;;;;;;;;;;;7369937;19;1302;-69
2023/01/04 15:14:34;;;;;;;;;;;;;;;;;;7371085;19;781;-67
2023/01/04 15:17:02;;;;;;;;;;;;;;;;;;7370954;19;1866;-69
2023/01/04 15:19:30;;;;;;;;;;;;;;;;;;7374302;19;1845;-69
2023/01/04 15:21:58;;;;;;;;;;;;;;;;;;7370732;19;1220;-67
2023/01/04 15:24:27;;;;;;;;;;;;;;;;;;7372033;19;1844;-68
2023/01/04 15:26:55;;;;;;;;;;;;;;;;;;7373305;19;1848;-69
2023/01/04 15:29:23;;;;;;;;;;;;;;;;;;7367695;19;1841;-68
2023/01/04 15:31:51;;;;;;;;;;;;;;;;;;7372207;19;1874;-69
2023/01/04 15:34:21;;;;;;;;;;;;;;;;;;7373587;19;1809;-70
2023/01/04 15:36:49;;;;;;;;;;;;;;;;;;7372594;19;1841;-68
2023/01/04 15:39:18;;;;;;;;;;;;;;;;;;7372318;19;1783;-69
2023/01/04 15:44:26;;;;;;;;;;;;;;;;;;7370247;19;787;-69
2023/01/04 15:46:54;;;;;;;;;;;;;;;;;;7369660;19;819;-68
2023/01/04 15:49:23;;;;;;;;;;;;;;;;;;7366889;19;1855;-68
2023/01/04 15:51:51;;;;;;;;;;;;;;;;;;7368716;19;1310;-67
2023/01/04 15:54:20;;;;;;;;;;;;;;;;;;7370291;19;870;-69
2023/01/04 15:56:48;;;;;;;;;;;;;;;;;;7369019;19;815;-70
2023/01/04 15:59:16;;;;;;;;;;;;;;;;;;7368953;19;823;-69
2023/01/04 16:01:44;;;;;;;;;;;;;;;;;;7368493;19;1303;-69
2023/01/04 16:04:13;;;;;;;;;;;;;;;;;;7369519;19;762;-68
2023/01/04 16:06:41;;;;;;;;;;;;;;;;;;7369896;19;1851;-68
2023/01/04 16:09:09;;;;;;;;;;;;;;;;;;7370776;19;1829;-68
2023/01/04 16:12:40;;;;;;;;;;;;;;;;;;7371949;19;1839;-68
2023/01/04 16:14:26;;;;;;;;;;;;;;;;;;7369314;19;1104;-67
2023/01/04 16:16:54;;;;;;;;;;;;;;;;;;7369381;19;807;-68
2023/01/04 16:19:22;;;;;;;;;;;;;;;;;;7367699;19;803;-68
2023/01/04 16:21:50;;;;;;;;;;;;;;;;;;7367364;19;1346;-69
2023/01/04 16:24:18;;;;;;;;;;;;;;;;;;7371100;19;1638;-67
2023/01/04 16:26:46;;;;;;;;;;;;;;;;;;7368684;19;971;-68
2023/01/04 16:29:15;;;;;;;;;;;;;;;;;;7365168;19;1929;-67
2023/01/04 16:31:44;;;;;;;;;;;;;;;;;;7365423;19;1286;-68
2023/01/04 16:34:12;;;;;;;;;;;;;;;;;;7367121;19;776;-67
2023/01/04 16:36:40;;;;;;;;;;;;;;;;;;7368439;19;808;-66
2023/01/04 16:39:08;;;;;;;;;;;;;;;;;;7368047;19;856;-67
2023/01/04 16:41:36;;;;;;;;;;;;;;;;;;7367182;19;1283;-67
2023/01/04 16:44:05;;;;;;;;;;;;;;;;;;7369203;19;697;-68
2023/01/04 16:46:33;;;;;;;;;;;;;;;;;;7369030;19;1914;-68
2023/01/04 16:49:01;;;;;;;;;;;;;;;;;;7366290;19;1846;-67
2023/01/04 16:51:29;;;;;;;;;;;;;;;;;;7367605;19;1275;-69
2023/01/04 16:53:58;;;;;;;;;;;;;;;;;;7368745;19;853;-69
2023/01/04 16:56:26;;;;;;;;;;;;;;;;;;7368114;19;807;-68
2023/01/04 16:58:54;;;;;;;;;;;;;;;;;;7367107;19;799;-68
2023/01/04 17:01:22;;;;;;;;;;;;;;;;;;7366347;19;1330;-66
2023/01/04 17:03:50;;;;;;;;;;;;;;;;;;7369456;19;1895;-68
2023/01/04 17:06:19;;;;;;;;;;;;;;;;;;7368167;19;879;-67
2023/01/04 17:08:47;;;;;;;;;;;;;;;;;;7366274;19;1826;-65
2023/01/04 17:11:15;;;;;;;;;;;;;;;;;;7366073;19;1334;-66
2023/01/04 17:13:43;;;;;;;;;;;;;;;;;;7366745;19;866;-68
2023/01/04 17:16:11;;;;;;;;;;;;;;;;;;7368181;19;869;-68
2023/01/04 17:18:39;;;;;;;;;;;;;;;;;;7366789;19;820;-67
2023/01/04 17:21:07;;;;;;;;;;;;;;;;;;7366084;19;1278;-67
2023/01/04 17:23:36;;;;;;;;;;;;;;;;;;7367527;19;862;-68
2023/01/04 17:26:04;;;;;;;;;;;;;;;;;;7366868;19;847;-69
2023/01/04 17:28:32;;;;;;;;;;;;;;;;;;7368698;19;1857;-68
2023/01/04 17:31:00;;;;;;;;;;;;;;;;;;7367117;19;1338;-67
2023/01/04 17:33:28;;;;;;;;;;;;;;;;;;7368449;19;898;-67
2023/01/04 17:35:56;;;;;;;;;;;;;;;;;;7366997;19;792;-67
2023/01/04 17:38:25;;;;;;;;;;;;;;;;;;7366078;19;803;-67
2023/01/04 17:40:53;;;;;;;;;;;;;;;;;;7366879;19;1311;-67
2023/01/04 17:43:21;;;;;;;;;;;;;;;;;;7367530;19;815;-66
2023/01/04 17:45:49;;;;;;;;;;;;;;;;;;7367068;19;831;-69
2023/01/04 17:48:17;;;;;;;;;;;;;;;;;;7365802;19;1849;-69
2023/01/04 17:50:45;;;;;;;;;;;;;;;;;;7366322;19;1286;-68
2023/01/04 17:53:13;;;;;;;;;;;;;;;;;;7366671;19;826;-68
2023/01/04 17:55:42;;;;;;;;;;;;;;;;;;7367350;19;795;-67
2023/01/04 17:58:10;;;;;;;;;;;;;;;;;;7366609;19;866;-68
2023/01/04 18:00:38;;;;;;;;;;;;;;;;;;7366648;19;1271;-68
2023/01/04 18:03:06;;;;;;;;;;;;;;;;;;7367102;19;806;-67
2023/01/04 18:05:34;;;;;;;;;;;;;;;;;;7366916;19;811;-66
2023/01/04 18:08:02;;;;;;;;;;;;;;;;;;7366600;19;1845;-68
2023/01/04 18:10:30;;;;;;;;;;;;;;;;;;7366409;19;1262;-67
2023/01/04 18:12:59;;;;;;;;;;;;;;;;;;7367699;19;867;-65